createdAt,value
2018-02-04T00:01:10.118Z,87.91
2018-02-04T00:03:38.384Z,88.46
2018-02-04T00:06:06.982Z,88.48
2018-02-04T00:08:34.406Z,88.58
2018-02-04T00:11:01.829Z,88.34
2018-02-04T00:13:29.390Z,88.51
2018-02-04T00:15:56.821Z,88.74
2018-02-04T00:18:24.255Z,88.92
2018-02-04T00:20:51.683Z,88.94
2018-02-04T00:23:19.249Z,89.05
2018-02-04T00:25:46.670Z,89.42
2018-02-04T00:28:14.102Z,89.29
2018-02-04T00:30:41.519Z,89.27
2018-02-04T00:33:08.949Z,89.38
2018-02-04T00:35:36.407Z,89.73
2018-02-04T00:38:03.984Z,89.78
2018-02-04T00:40:31.737Z,89.89
2018-02-04T00:43:00.687Z,90.23
2018-02-04T00:45:28.118Z,90.34
2018-02-04T00:47:55.602Z,90.30
2018-02-04T00:50:23.365Z,90.49
2018-02-04T00:52:51.442Z,90.11
2018-02-04T00:55:18.877Z,89.78
2018-02-04T00:57:46.285Z,89.29
2018-02-04T01:00:13.833Z,89.25
2018-02-04T01:02:41.579Z,89.08
2018-02-04T01:05:09.065Z,89.31
2018-02-04T01:07:36.540Z,89.20
2018-02-04T01:10:03.969Z,89.60
2018-02-04T01:12:31.717Z,89.53
2018-02-04T01:14:59.210Z,88.81
2018-02-04T01:17:27.470Z,88.40
2018-02-04T01:19:54.965Z,88.60
2018-02-04T01:22:22.381Z,88.34
2018-02-04T01:24:49.809Z,88.44
2018-02-04T01:27:17.221Z,88.66
2018-02-04T01:29:44.801Z,88.78
2018-02-04T01:32:12.218Z,89.14
2018-02-04T01:34:39.651Z,89.26
2018-02-04T01:37:07.155Z,89.52
2018-02-04T01:39:34.699Z,89.70
2018-02-04T01:42:02.117Z,89.92
2018-02-04T01:44:29.583Z,90.12
2018-02-04T01:46:57.165Z,90.21
2018-02-04T01:49:24.810Z,90.25
2018-02-04T01:51:52.517Z,90.34
2018-02-04T01:54:19.975Z,90.47
2018-02-04T01:56:47.438Z,90.61
2018-02-04T01:59:15.738Z,90.77
2018-02-04T02:01:43.410Z,90.70
2018-02-04T02:04:11.003Z,90.41
2018-02-04T02:06:38.601Z,90.03
2018-02-04T02:09:05.968Z,89.74
2018-02-04T02:11:33.417Z,89.65
2018-02-04T02:14:00.845Z,89.74
2018-02-04T02:16:28.285Z,90.20
2018-02-04T02:18:55.766Z,90.25
2018-02-04T02:21:23.200Z,90.33
2018-02-04T02:23:50.735Z,90.39
2018-02-04T02:26:18.161Z,90.64
2018-02-04T02:28:45.586Z,90.79
2018-02-04T02:31:13.017Z,90.85
2018-02-04T02:33:40.476Z,90.79
2018-02-04T02:36:07.895Z,90.92
2018-02-04T02:38:35.473Z,90.86
2018-02-04T02:41:05.755Z,90.67
2018-02-04T02:43:33.400Z,90.70
2018-02-04T02:46:00.962Z,90.75
2018-02-04T02:48:28.786Z,90.80
2018-02-04T02:50:56.386Z,91.22
2018-02-04T02:53:24.333Z,91.45
2018-02-04T02:55:51.759Z,91.50
2018-02-04T02:58:19.169Z,91.48
2018-02-04T03:00:46.671Z,91.39
2018-02-04T03:03:14.077Z,91.32
2018-02-04T03:05:41.526Z,91.25
2018-02-04T03:08:09.059Z,91.19
2018-02-04T03:10:36.482Z,91.11
2018-02-04T03:13:05.070Z,91.02
2018-02-04T03:15:32.576Z,90.86
2018-02-04T03:18:00.037Z,90.67
2018-02-04T03:20:27.461Z,90.71
2018-02-04T03:22:54.949Z,90.58
2018-02-04T03:25:22.494Z,90.65
2018-02-04T03:27:50.173Z,90.55
2018-02-04T03:30:17.930Z,90.61
2018-02-04T03:32:45.413Z,90.76
2018-02-04T03:35:12.832Z,90.85
2018-02-04T03:37:40.263Z,90.85
2018-02-04T03:40:07.767Z,90.62
2018-02-04T03:42:35.506Z,90.52
2018-02-04T03:45:03.138Z,90.41
2018-02-04T03:47:33.313Z,90.38
2018-02-04T03:50:00.732Z,90.56
2018-02-04T03:52:28.380Z,90.47
2018-02-04T03:54:55.803Z,90.39
2018-02-04T03:57:23.375Z,90.30
2018-02-04T03:59:50.829Z,90.41
2018-02-04T04:02:18.273Z,90.39
2018-02-04T04:04:45.711Z,90.39
2018-02-04T04:07:13.246Z,90.25
2018-02-04T04:09:40.662Z,90.11
2018-02-04T04:12:08.117Z,90.07
2018-02-04T04:14:35.536Z,90.17
2018-02-04T04:17:04.050Z,90.14
2018-02-04T04:19:31.709Z,90.48
2018-02-04T04:21:59.134Z,90.87
2018-02-04T04:24:26.545Z,91.33
2018-02-04T04:26:53.974Z,91.46
2018-02-04T04:29:21.608Z,91.17
2018-02-04T04:31:49.022Z,91.32
2018-02-04T04:34:16.456Z,91.13
2018-02-04T04:36:44.530Z,91.40
2018-02-04T04:39:11.963Z,91.17
2018-02-04T04:41:39.387Z,91.32
2018-02-04T04:44:07.861Z,91.61
2018-02-04T04:46:35.282Z,91.48
2018-02-04T04:49:02.749Z,91.59
2018-02-04T04:51:30.171Z,91.53
2018-02-04T04:53:57.631Z,91.70
2018-02-04T04:56:25.922Z,91.85
2018-02-04T04:58:53.360Z,91.85
2018-02-04T05:01:20.924Z,91.96
2018-02-04T05:03:48.292Z,92.26
2018-02-04T05:06:15.707Z,92.91
2018-02-04T05:08:43.135Z,93.36
2018-02-04T05:11:10.757Z,93.42
2018-02-04T05:13:39.084Z,93.43
2018-02-04T05:16:06.492Z,93.54
2018-02-04T05:18:34.140Z,93.63
2018-02-04T05:21:01.547Z,93.79
2018-02-04T05:23:28.990Z,93.83
2018-02-04T05:25:56.720Z,93.87
2018-02-04T05:28:24.142Z,93.90
2018-02-04T05:30:51.994Z,93.86
2018-02-04T05:33:20.636Z,93.81
2018-02-04T05:35:48.054Z,93.73
2018-02-04T05:38:15.488Z,93.67
2018-02-04T05:40:42.903Z,93.58
2018-02-04T05:43:10.457Z,93.47
2018-02-04T05:45:39.671Z,93.39
2018-02-04T05:48:07.103Z,93.30
2018-02-04T05:50:34.565Z,93.04
2018-02-04T05:53:01.999Z,92.82
2018-02-04T05:55:29.618Z,92.53
2018-02-04T05:57:57.062Z,92.45
2018-02-04T06:00:24.473Z,92.30
2018-02-04T06:02:52.006Z,92.23
2018-02-04T06:05:19.426Z,92.28
2018-02-04T06:07:46.837Z,92.21
2018-02-04T06:10:14.338Z,92.25
2018-02-04T06:12:41.849Z,92.21
2018-02-04T06:15:09.265Z,92.10
2018-02-04T06:17:36.687Z,91.99
2018-02-04T06:20:04.208Z,92.07
2018-02-04T06:22:31.615Z,92.07
2018-02-04T06:24:59.122Z,91.89
2018-02-04T06:27:27.114Z,91.89
2018-02-04T06:29:54.542Z,91.72
2018-02-04T06:32:22.070Z,91.71
2018-02-04T06:34:51.256Z,91.79
2018-02-04T06:37:18.833Z,92.10
2018-02-04T06:39:46.285Z,92.12
2018-02-04T06:42:13.706Z,91.97
2018-02-04T06:44:43.013Z,92.13
2018-02-04T06:47:10.430Z,92.19
2018-02-04T06:49:37.993Z,92.26
2018-02-04T06:52:05.425Z,92.48
2018-02-04T06:54:33.148Z,91.87
2018-02-04T06:57:00.569Z,91.70
2018-02-04T06:59:28.002Z,91.45
2018-02-04T07:01:55.411Z,91.35
2018-02-04T07:04:22.847Z,91.31
2018-02-04T07:06:50.266Z,91.61
2018-02-04T07:09:17.836Z,91.57
2018-02-04T07:11:45.695Z,91.50
2018-02-04T07:14:14.126Z,91.76
2018-02-04T07:16:41.562Z,91.95
2018-02-04T07:19:11.206Z,91.79
2018-02-04T07:21:38.967Z,91.61
2018-02-04T07:24:06.669Z,91.38
2018-02-04T07:26:34.130Z,90.99
2018-02-04T07:29:01.897Z,90.92
2018-02-04T07:31:29.309Z,90.79
2018-02-04T07:33:57.109Z,90.60
2018-02-04T07:36:25.357Z,90.71
2018-02-04T07:38:52.764Z,90.23
2018-02-04T07:41:20.188Z,90.14
2018-02-04T07:43:47.588Z,89.66
2018-02-04T07:46:15.497Z,89.37
2018-02-04T07:48:42.910Z,89.30
2018-02-04T07:51:10.303Z,88.69
2018-02-04T07:53:37.708Z,88.20
2018-02-04T07:56:05.120Z,87.91
2018-02-04T07:58:32.545Z,87.85
2018-02-04T08:00:59.961Z,87.64
2018-02-04T08:03:27.361Z,87.18
2018-02-04T08:05:54.780Z,87.20
2018-02-04T08:08:22.197Z,87.10
2018-02-04T08:10:49.620Z,86.79
2018-02-04T08:13:17.022Z,86.76
2018-02-04T08:15:44.503Z,86.51
2018-02-04T08:18:11.867Z,86.09
2018-02-04T08:20:39.288Z,86.19
2018-02-04T08:23:06.697Z,85.97
2018-02-04T08:25:34.108Z,85.33
2018-02-04T08:28:01.523Z,85.60
2018-02-04T08:30:28.937Z,85.74
2018-02-04T08:32:56.350Z,85.09
2018-02-04T08:35:23.766Z,84.87
2018-02-04T08:37:51.177Z,84.80
2018-02-04T08:46:24.906Z,84.67
2018-02-04T08:48:52.376Z,83.33
2018-02-04T08:51:19.760Z,83.10
2018-02-04T08:53:47.161Z,83.72
2018-02-04T08:56:14.569Z,83.16
2018-02-04T08:58:41.983Z,80.98
2018-02-04T09:01:09.386Z,85.06
2018-02-04T09:06:35.266Z,87.31
2018-02-04T09:09:02.686Z,87.48
2018-02-04T09:11:30.128Z,86.86
2018-02-04T09:13:57.589Z,85.40
2018-02-04T09:16:24.992Z,84.81
2018-02-04T09:18:52.424Z,83.47
2018-02-04T09:21:20.152Z,84.35
2018-02-04T09:23:47.575Z,85.07
2018-02-04T09:26:15.019Z,85.03
2018-02-04T09:28:42.429Z,84.82
2018-02-04T09:31:10.538Z,85.04
2018-02-04T09:33:37.918Z,85.72
2018-02-04T09:36:05.324Z,85.99
2018-02-04T09:38:33.277Z,86.35
2018-02-04T09:41:02.524Z,86.32
2018-02-04T09:43:29.947Z,86.35
2018-02-04T09:45:57.354Z,87.16
2018-02-04T09:48:25.051Z,86.39
2018-02-04T09:50:52.466Z,85.93
2018-02-04T09:53:19.919Z,83.66
2018-02-04T09:55:47.312Z,83.36
2018-02-04T09:58:14.740Z,83.74
2018-02-04T10:00:42.194Z,83.92
2018-02-04T10:03:09.621Z,82.58
2018-02-04T10:05:37.248Z,80.78
2018-02-04T10:08:11.106Z,81.24
2018-02-04T10:10:39.136Z,83.12
2018-02-04T10:13:06.569Z,83.19
2018-02-04T10:15:35.696Z,84.17
2018-02-04T10:18:03.131Z,83.38
2018-02-04T10:20:30.902Z,82.46
2018-02-04T10:22:58.496Z,82.08
2018-02-04T10:25:25.935Z,81.35
2018-02-04T10:27:53.622Z,81.49
2018-02-04T10:30:21.584Z,80.32
2018-02-04T10:32:49.046Z,80.63
2018-02-04T10:35:16.852Z,80.40
2018-02-04T10:37:45.628Z,80.41
2018-02-04T10:40:13.403Z,80.58
2018-02-04T10:42:40.838Z,79.91
2018-02-04T10:45:08.651Z,80.14
2018-02-04T10:47:36.410Z,80.35
2018-02-04T10:50:03.971Z,79.08
2018-02-04T10:52:32.886Z,79.74
2018-02-04T10:55:00.361Z,78.71
2018-02-04T10:57:27.770Z,77.08
2018-02-04T10:59:55.206Z,77.17
2018-02-04T11:02:23.336Z,77.69
2018-02-04T11:04:50.760Z,75.05
2018-02-04T11:07:18.953Z,76.47
2018-02-04T11:09:46.374Z,78.21
2018-02-04T11:12:13.774Z,78.26
2018-02-04T11:14:41.193Z,78.25
2018-02-04T11:17:08.593Z,78.74
2018-02-04T11:19:36.153Z,78.37
2018-02-04T11:22:04.541Z,77.22
2018-02-04T11:24:31.958Z,75.74
2018-02-04T11:26:59.353Z,75.02
2018-02-04T11:29:26.784Z,75.23
2018-02-04T11:31:54.196Z,75.15
2018-02-04T11:34:21.609Z,75.64
2018-02-04T11:36:49.986Z,75.59
2018-02-04T11:39:17.375Z,74.33
2018-02-04T11:41:44.812Z,75.76
2018-02-04T11:44:12.204Z,75.01
2018-02-04T11:46:39.636Z,75.49
2018-02-04T11:49:07.008Z,75.07
2018-02-04T11:51:34.472Z,77.16
2018-02-04T11:54:01.869Z,78.59
2018-02-04T11:56:29.272Z,80.45
2018-02-04T11:58:56.676Z,82.80
2018-02-04T12:01:24.877Z,82.84
2018-02-04T12:03:52.282Z,82.72
2018-02-04T12:06:19.685Z,82.83
2018-02-04T12:08:47.089Z,83.58
2018-02-04T12:11:14.493Z,85.22
2018-02-04T12:13:41.905Z,86.25
2018-02-04T12:16:09.317Z,86.36
2018-02-04T12:18:37.424Z,86.07
2018-02-04T12:21:04.911Z,86.35
2018-02-04T12:23:32.292Z,86.23
2018-02-04T12:25:59.689Z,86.25
2018-02-04T12:28:27.090Z,85.81
2018-02-04T12:30:54.494Z,85.21
2018-02-04T12:33:21.896Z,83.42
2018-02-04T12:35:49.376Z,83.01
2018-02-04T12:38:17.592Z,81.91
2018-02-04T12:40:44.993Z,84.31
2018-02-04T12:43:12.812Z,83.62
2018-02-04T12:45:40.240Z,83.42
2018-02-04T12:48:07.632Z,84.39
2018-02-04T12:50:35.045Z,85.37
2018-02-04T12:53:02.497Z,85.64
2018-02-04T12:55:29.933Z,85.52
2018-02-04T12:57:57.340Z,84.66
2018-02-04T13:00:24.745Z,85.73
2018-02-04T13:02:52.140Z,86.12
2018-02-04T13:05:19.564Z,85.92
2018-02-04T13:07:46.977Z,86.28
2018-02-04T13:10:14.374Z,86.53
2018-02-04T13:12:41.866Z,86.96
2018-02-04T13:15:09.268Z,86.24
2018-02-04T13:17:36.890Z,86.83
2018-02-04T13:20:04.288Z,86.26
2018-02-04T13:22:31.688Z,86.71
2018-02-04T13:24:59.084Z,86.50
2018-02-04T13:27:27.344Z,86.94
2018-02-04T13:29:54.801Z,87.00
2018-02-04T13:32:22.214Z,88.04
2018-02-04T13:34:49.622Z,88.12
2018-02-04T13:37:17.029Z,88.70
2018-02-04T13:39:44.433Z,88.42
2018-02-04T13:42:11.844Z,88.27
2018-02-04T13:44:39.244Z,88.07
2018-02-04T13:47:06.684Z,87.89
2018-02-04T13:49:34.486Z,88.05
2018-02-04T13:52:01.923Z,86.98
2018-02-04T13:54:30.117Z,87.38
2018-02-04T13:56:58.296Z,87.73
2018-02-04T13:59:25.714Z,87.91
2018-02-04T14:01:53.140Z,87.99
2018-02-04T14:04:20.532Z,87.85
2018-02-04T14:06:48.004Z,87.58
2018-02-04T14:09:15.414Z,87.57
2018-02-04T14:11:42.812Z,88.11
2018-02-04T14:14:10.217Z,88.93
2018-02-04T14:16:37.833Z,89.22
2018-02-04T14:19:05.313Z,89.22
2018-02-04T14:21:32.712Z,89.55
2018-02-04T14:24:00.141Z,89.48
2018-02-04T14:26:27.536Z,88.76
2018-02-04T14:28:55.010Z,88.47
2018-02-04T14:31:22.421Z,88.76
2018-02-04T14:33:49.913Z,88.43
2018-02-04T14:36:17.314Z,88.69
2018-02-04T14:38:44.723Z,87.73
2018-02-04T14:41:12.238Z,87.52
2018-02-04T14:43:39.604Z,87.30
2018-02-04T14:46:07.048Z,87.34
2018-02-04T14:48:34.542Z,87.30
2018-02-04T14:51:01.932Z,87.22
2018-02-04T14:53:30.147Z,87.41
2018-02-04T14:55:57.537Z,87.81
2018-02-04T14:58:25.311Z,87.59
2018-02-04T15:00:52.697Z,87.90
2018-02-04T15:03:20.105Z,87.78
2018-02-04T15:05:47.526Z,87.77
2018-02-04T15:08:15.023Z,88.19
2018-02-04T15:10:42.873Z,88.15
2018-02-04T15:13:10.260Z,88.72
2018-02-04T15:15:37.707Z,88.46
2018-02-04T15:18:05.125Z,88.42
2018-02-04T15:20:32.536Z,88.59
2018-02-04T15:23:00.957Z,87.64
2018-02-04T15:25:29.262Z,87.21
2018-02-04T15:27:56.653Z,87.39
2018-02-04T15:30:24.080Z,88.32
2018-02-04T15:32:51.482Z,88.84
2018-02-04T15:35:18.902Z,89.09
2018-02-04T15:37:46.299Z,89.68
2018-02-04T15:40:13.716Z,89.81
2018-02-04T15:42:41.129Z,89.28
2018-02-04T15:45:08.577Z,89.30
2018-02-04T15:47:36.692Z,89.54
2018-02-04T15:50:05.096Z,89.37
2018-02-04T15:52:32.499Z,89.89
2018-02-04T15:54:59.913Z,89.78
2018-02-04T15:57:29.126Z,89.39
2018-02-04T15:59:56.490Z,89.72
2018-02-04T16:02:23.908Z,89.57
2018-02-04T16:04:51.320Z,89.87
2018-02-04T16:07:18.727Z,89.89
2018-02-04T16:09:46.146Z,90.30
2018-02-04T16:12:13.549Z,90.51
2018-02-04T16:14:40.981Z,90.02
2018-02-04T16:17:08.377Z,90.00
2018-02-04T16:19:35.800Z,90.37
2018-02-04T16:22:04.120Z,90.85
2018-02-04T16:24:31.524Z,90.83
2018-02-04T16:26:59.064Z,91.23
2018-02-04T16:29:26.471Z,91.50
2018-02-04T16:31:53.973Z,91.54
2018-02-04T16:34:21.378Z,91.46
2018-02-04T16:36:48.792Z,91.22
2018-02-04T16:39:16.197Z,91.21
2018-02-04T16:41:43.654Z,91.04
2018-02-04T16:44:11.120Z,90.74
2018-02-04T16:46:38.542Z,90.95
2018-02-04T16:49:06.024Z,90.56
2018-02-04T16:51:33.980Z,90.52
2018-02-04T16:54:01.407Z,90.01
2018-02-04T16:56:31.675Z,90.05
2018-02-04T16:58:59.145Z,90.04
2018-02-04T17:01:26.576Z,90.52
2018-02-04T17:03:53.974Z,89.43
2018-02-04T17:06:21.389Z,90.28
2018-02-04T17:08:48.854Z,90.27
2018-02-04T17:11:16.309Z,90.59
2018-02-04T17:13:44.628Z,90.87
2018-02-04T17:16:12.198Z,90.95
2018-02-04T17:18:39.656Z,91.05
2018-02-04T17:21:07.134Z,90.63
2018-02-04T17:23:35.194Z,90.94
2018-02-04T17:26:02.671Z,91.25
2018-02-04T17:28:30.097Z,91.12
2018-02-04T17:30:57.547Z,91.26
2018-02-04T17:33:24.941Z,91.05
2018-02-04T17:35:52.357Z,91.02
2018-02-04T17:38:19.764Z,91.07
2018-02-04T17:40:47.228Z,90.53
2018-02-04T17:43:14.628Z,90.64
2018-02-04T17:45:42.035Z,90.45
2018-02-04T17:48:09.508Z,90.41
2018-02-04T17:50:36.920Z,90.28
2018-02-04T17:53:04.347Z,90.60
2018-02-04T17:55:31.822Z,91.06
2018-02-04T17:57:59.270Z,90.89
2018-02-04T18:00:26.671Z,90.83
2018-02-04T18:02:54.076Z,91.13
2018-02-04T18:05:22.233Z,90.97
2018-02-04T18:07:49.726Z,91.11
2018-02-04T18:10:17.400Z,91.16
2018-02-04T18:12:44.870Z,91.48
2018-02-04T18:15:12.370Z,91.55
2018-02-04T18:17:39.800Z,91.31
2018-02-04T18:20:07.188Z,91.44
2018-02-04T18:22:34.619Z,92.04
2018-02-04T18:25:02.020Z,91.88
2018-02-04T18:27:29.439Z,91.54
2018-02-04T18:29:56.840Z,91.60
2018-02-04T18:32:24.298Z,91.72
2018-02-04T18:34:51.742Z,91.60
2018-02-04T18:37:19.145Z,91.66
2018-02-04T18:39:47.469Z,91.79
2018-02-04T18:42:14.925Z,91.60
2018-02-04T18:44:42.324Z,91.27
2018-02-04T18:47:09.794Z,91.53
2018-02-04T18:49:37.184Z,91.34
2018-02-04T18:52:04.592Z,91.41
2018-02-04T18:54:32.990Z,90.98
2018-02-04T18:57:00.393Z,91.26
2018-02-04T18:59:27.878Z,90.89
2018-02-04T19:01:55.293Z,90.79
2018-02-04T19:04:22.723Z,91.17
2018-02-04T19:06:50.135Z,91.27
2018-02-04T19:09:17.559Z,90.59
2018-02-04T19:11:45.004Z,90.77
2018-02-04T19:14:12.409Z,91.08
2018-02-04T19:16:39.816Z,90.95
2018-02-04T19:19:07.224Z,90.68
2018-02-04T19:21:34.982Z,90.19
2018-02-04T19:24:02.450Z,90.24
2018-02-04T19:26:29.837Z,90.54
2018-02-04T19:28:57.371Z,90.08
2018-02-04T19:31:24.812Z,90.07
2018-02-04T19:33:52.230Z,90.58
2018-02-04T19:36:19.676Z,91.01
2018-02-04T19:38:47.136Z,90.68
2018-02-04T19:41:14.528Z,90.87
2018-02-04T19:43:41.940Z,91.11
2018-02-04T19:46:09.388Z,90.97
2018-02-04T19:48:36.785Z,90.93
2018-02-04T19:51:04.246Z,91.13
2018-02-04T19:53:31.657Z,90.75
2018-02-04T19:55:59.056Z,90.78
2018-02-04T19:58:26.516Z,90.88
2018-02-04T20:00:53.908Z,90.79
2018-02-04T20:03:21.364Z,90.81
2018-02-04T20:05:48.776Z,90.64
2018-02-04T20:08:16.172Z,90.44
2018-02-04T20:10:43.588Z,90.50
2018-02-04T20:13:11.582Z,90.75
2018-02-04T20:15:39.049Z,91.10
2018-02-04T20:18:06.507Z,90.81
2018-02-04T20:20:33.964Z,90.89
2018-02-04T20:23:01.412Z,90.61
2018-02-04T20:25:28.836Z,90.83
2018-02-04T20:27:56.237Z,90.59
2018-02-04T20:30:23.694Z,89.83
2018-02-04T20:33:06.500Z,90.33
2018-02-04T20:35:44.797Z,90.05
2018-02-04T20:38:12.457Z,89.97
2018-02-04T20:40:39.923Z,89.59
2018-02-04T20:43:07.367Z,89.49
2018-02-04T20:45:34.820Z,89.57
2018-02-04T20:48:02.227Z,89.82
2018-02-04T20:50:29.684Z,89.24
2018-02-04T20:52:57.090Z,89.09
2018-02-04T20:55:24.539Z,88.90
2018-02-04T20:57:51.913Z,89.21
2018-02-04T21:00:19.384Z,89.00
2018-02-04T21:02:46.781Z,88.05
2018-02-04T21:05:14.192Z,88.06
2018-02-04T21:07:41.596Z,89.21
2018-02-04T21:10:09.005Z,89.18
2018-02-04T21:12:36.473Z,88.81
2018-02-04T21:15:03.879Z,89.10
2018-02-04T21:17:31.322Z,89.04
2018-02-04T21:19:58.728Z,89.38
2018-02-04T21:22:26.134Z,89.50
2018-02-04T21:24:53.596Z,89.04
2018-02-04T21:27:21.001Z,89.46
2018-02-04T21:29:48.404Z,89.92
2018-02-04T21:32:15.868Z,89.78
2018-02-04T21:34:43.265Z,89.85
2018-02-04T21:37:10.676Z,89.61
2018-02-04T21:39:38.125Z,89.85
2018-02-04T21:42:05.537Z,89.91
2018-02-04T21:44:32.950Z,89.95
2018-02-04T21:47:00.410Z,90.24
2018-02-04T21:49:27.860Z,90.12
2018-02-04T21:51:55.257Z,89.78
2018-02-04T21:54:23.270Z,89.73
2018-02-04T21:56:50.714Z,89.49
2018-02-04T22:02:41.819Z,89.95
2018-02-04T22:05:09.217Z,89.95
2018-02-04T22:07:36.640Z,89.65
2018-02-04T22:10:04.059Z,89.47
2018-02-04T22:12:31.465Z,89.32
2018-02-04T22:14:58.876Z,89.85
2018-02-04T22:17:26.288Z,89.91
2018-02-04T22:19:53.696Z,90.20
2018-02-04T22:22:21.108Z,90.42
2018-02-04T22:24:48.525Z,90.65
2018-02-04T22:27:15.937Z,90.53
2018-02-04T22:29:43.347Z,90.32
2018-02-04T22:32:10.772Z,90.39
2018-02-04T22:34:38.192Z,90.02
2018-02-04T22:37:05.608Z,89.72
2018-02-04T22:39:33.323Z,90.39
2018-02-04T22:42:00.740Z,90.39
2018-02-04T22:44:28.148Z,90.59
2018-02-04T22:46:55.569Z,90.47
2018-02-04T22:49:23.348Z,90.43
2018-02-04T22:51:50.769Z,90.66
2018-02-04T22:54:19.134Z,90.86
2018-02-04T22:56:46.503Z,90.73
2018-02-04T22:59:13.913Z,90.64
2018-02-04T23:01:41.328Z,90.65
2018-02-04T23:04:08.734Z,90.78
2018-02-04T23:06:36.148Z,91.33
2018-02-04T23:09:03.557Z,91.12
2018-02-04T23:11:30.973Z,90.96
2018-02-04T23:13:58.384Z,90.91
2018-02-04T23:16:25.788Z,90.78
2018-02-04T23:18:53.214Z,90.74
2018-02-04T23:21:20.613Z,90.62
2018-02-04T23:23:48.028Z,91.23
2018-02-04T23:26:15.436Z,91.08
2018-02-04T23:28:42.849Z,91.16
2018-02-04T23:31:10.257Z,91.36
2018-02-04T23:33:37.671Z,90.77
2018-02-04T23:36:05.088Z,90.52
2018-02-04T23:38:32.509Z,90.19
2018-02-04T23:40:59.925Z,90.32
2018-02-04T23:43:27.337Z,90.27
2018-02-04T23:45:54.786Z,90.36
2018-02-04T23:48:22.163Z,90.46
2018-02-04T23:50:49.592Z,90.59
2018-02-04T23:53:17.009Z,90.94
2018-02-04T23:55:44.424Z,91.24
2018-02-04T23:58:11.841Z,91.23
